Time;durP1;ratioP1;P1;durP2;ratioP2;P2;SDS_P1;SDS_P2;PMS_P1;PMS_P2;Temp;Humidity;BMP_temperature;BMP_pressure;BME280_temperature;BME280_humidity;BME280_pressure;Samples;Min_cycle;Max_cycle;Signal;HPM_P1;HPM_P2
2022/11/17 00:01:45;;;;;;;7.07;6.13;;;6.60;99.90;;;;;;5073937;28;20028;-56
2022/11/17 00:04:30;;;;;;;10.32;7.38;;;6.50;99.90;;;;;;5072917;28;20032;-50
2022/11/17 00:07:16;;;;;;;8.25;7.03;;;6.50;99.90;;;;;;5072531;28;20063;-51
2022/11/17 00:10:03;;;;;;;7.97;6.68;;;6.40;99.90;;;;;;5090785;28;20165;-53
2022/11/17 00:15:53;;;;;;;9.98;7.53;;;6.40;99.90;;;;;;5072990;28;20028;-54
2022/11/17 00:21:44;;;;;;;8.90;6.60;;;6.40;99.90;;;;;;5092955;28;20111;-55
2022/11/17 00:24:30;;;;;;;8.63;6.68;;;6.40;99.90;;;;;;5066556;28;20020;-53
2022/11/17 00:27:16;;;;;;;10.13;7.90;;;6.40;99.90;;;;;;5057578;28;20033;-58
2022/11/17 00:30:02;;;;;;;9.55;6.70;;;6.40;99.90;;;;;;5073299;28;20055;-57
2022/11/17 00:35:53;;;;;;;8.32;7.30;;;6.30;99.90;;;;;;5090387;28;20024;-53
2022/11/17 00:38:39;;;;;;;7.30;6.57;;;6.30;99.90;;;;;;5089990;28;20034;-57
2022/11/17 00:41:25;;;;;;;8.45;6.78;;;6.30;99.90;;;;;;5088132;28;20035;-55
2022/11/17 00:44:11;;;;;;;6.90;6.18;;;6.30;99.90;;;;;;5104957;28;20081;-55
2022/11/17 00:46:57;;;;;;;7.07;6.32;;;6.30;99.90;;;;;;5065096;28;20496;-55
2022/11/17 00:49:44;;;;;;;7.45;6.53;;;6.30;99.90;;;;;;5091465;28;20087;-58
2022/11/17 00:52:30;;;;;;;7.85;6.22;;;6.30;99.90;;;;;;5089113;28;20032;-50
2022/11/17 00:55:16;;;;;;;7.45;6.55;;;6.40;99.90;;;;;;5085196;28;20021;-55
2022/11/17 00:58:02;;;;;;;8.43;6.72;;;6.30;99.90;;;;;;5079829;28;20025;-51
2022/11/17 01:00:48;;;;;;;7.90;6.57;;;6.30;99.90;;;;;;5082406;28;20514;-52
2022/11/17 01:03:35;;;;;;;8.43;7.05;;;6.20;99.90;;;;;;5081099;28;20028;-56
2022/11/17 01:06:20;;;;;;;8.20;6.50;;;6.20;99.90;;;;;;5089774;28;20417;-53
2022/11/17 01:09:11;;;;;;;9.07;6.25;;;6.30;99.90;;;;;;5083503;28;20511;-54
2022/11/17 01:11:57;;;;;;;8.57;6.82;;;6.20;99.90;;;;;;5066753;28;20397;-50
2022/11/17 01:14:43;;;;;;;7.95;6.45;;;6.20;99.90;;;;;;5084670;28;20036;-53
2022/11/17 01:17:29;;;;;;;7.65;6.85;;;6.20;99.90;;;;;;5086017;28;20518;-54
2022/11/17 01:20:15;;;;;;;7.13;6.43;;;6.20;99.90;;;;;;5084453;28;20432;-50
2022/11/17 01:23:01;;;;;;;8.23;5.95;;;6.20;99.90;;;;;;5073831;28;20049;-50
2022/11/17 01:25:47;;;;;;;7.30;6.32;;;6.20;99.90;;;;;;5077419;28;20040;-55
2022/11/17 01:28:33;;;;;;;9.10;6.40;;;6.20;99.90;;;;;;5079501;28;20066;-56
2022/11/17 01:31:22;;;;;;;7.22;5.60;;;6.20;99.90;;;;;;5070067;28;20028;-52
2022/11/17 01:34:08;;;;;;;6.65;5.63;;;6.20;99.90;;;;;;5083667;28;20040;-53
2022/11/17 01:39:58;;;;;;;7.45;6.00;;;6.20;99.90;;;;;;5080760;28;20025;-55
2022/11/17 01:42:44;;;;;;;6.40;5.45;;;6.20;99.90;;;;;;5083377;28;20031;-57
2022/11/17 01:45:30;;;;;;;6.18;5.38;;;6.30;99.90;;;;;;5085930;28;20035;-56
2022/11/17 01:48:16;;;;;;;6.57;5.50;;;6.30;99.90;;;;;;5081490;28;20128;-56
2022/11/17 01:51:03;;;;;;;7.05;5.55;;;6.30;99.90;;;;;;5071556;28;20070;-53
2022/11/17 01:53:50;;;;;;;8.05;5.85;;;6.30;99.90;;;;;;5073058;28;20047;-54
2022/11/17 01:56:40;;;;;;;7.60;5.90;;;6.30;99.90;;;;;;5080877;28;20079;-56
2022/11/17 01:59:33;;;;;;;7.35;6.00;;;6.30;99.90;;;;;;5077656;28;20023;-55
2022/11/17 02:02:19;;;;;;;7.00;5.95;;;6.30;99.90;;;;;;5081272;28;20021;-54
2022/11/17 02:05:11;;;;;;;6.78;5.97;;;6.30;99.90;;;;;;5097746;28;20173;-54
2022/11/17 02:08:00;;;;;;;7.32;5.78;;;6.30;99.90;;;;;;5070293;28;20043;-56
2022/11/17 02:10:48;;;;;;;6.40;5.32;;;6.30;99.90;;;;;;5071241;28;20059;-53
2022/11/17 02:13:34;;;;;;;6.45;5.35;;;6.30;99.90;;;;;;5073391;28;20031;-55
2022/11/17 02:16:20;;;;;;;6.97;5.43;;;6.30;99.90;;;;;;5090274;28;20114;-56
2022/11/17 02:19:08;;;;;;;8.23;5.28;;;6.20;99.90;;;;;;5083064;28;20056;-55
2022/11/17 02:22:12;;;;;;;6.68;5.85;;;6.30;99.90;;;;;;5071008;28;20107;-51
2022/11/17 02:25:22;;;;;;;6.35;5.32;;;6.30;99.90;;;;;;5085500;28;20020;-55
2022/11/17 02:28:27;;;;;;;6.50;5.35;;;6.30;99.90;;;;;;5084700;28;20528;-51
2022/11/17 02:31:32;;;;;;;6.40;5.15;;;6.30;99.90;;;;;;5070703;28;20511;-55
2022/11/17 02:34:37;;;;;;;6.32;4.90;;;6.30;99.90;;;;;;5084666;28;20402;-53
2022/11/17 02:37:48;;;;;;;5.65;4.97;;;6.30;99.90;;;;;;5090138;28;20025;-55
2022/11/17 02:40:48;;;;;;;6.10;5.30;;;6.40;99.90;;;;;;5071504;28;20508;-54
2022/11/17 02:44:08;;;;;;;6.22;5.07;;;6.30;99.90;;;;;;5076123;28;20488;-55
2022/11/17 02:47:05;;;;;;;5.35;4.85;;;6.30;99.90;;;;;;5090449;28;20561;-55
2022/11/17 02:50:00;;;;;;;5.82;4.68;;;6.30;99.90;;;;;;5072526;28;20029;-54
2022/11/17 02:52:46;;;;;;;6.40;4.88;;;6.30;99.90;;;;;;5075539;28;20408;-56
2022/11/17 02:55:36;;;;;;;5.38;4.82;;;6.30;99.90;;;;;;5090532;28;20021;-56
2022/11/17 02:58:22;;;;;;;6.80;4.57;;;6.30;99.90;;;;;;5094332;28;20043;-57
2022/11/17 03:01:51;;;;;;;6.30;4.88;;;6.20;99.90;;;;;;5088274;28;20116;-51
2022/11/17 03:05:14;;;;;;;5.60;5.00;;;6.10;99.90;;;;;;5076754;28;20033;-54
2022/11/17 03:08:21;;;;;;;4.97;4.30;;;6.10;99.90;;;;;;5075890;28;20103;-54
2022/11/17 03:11:09;;;;;;;5.90;4.63;;;6.10;99.90;;;;;;5089464;28;20056;-57
2022/11/17 03:13:57;;;;;;;4.85;4.35;;;6.10;99.90;;;;;;5077461;28;20040;-54
2022/11/17 03:16:52;;;;;;;7.05;4.88;;;6.10;99.90;;;;;;5069295;28;20392;-54
2022/11/17 03:19:46;;;;;;;6.13;5.05;;;6.00;99.90;;;;;;5070232;28;20031;-55
2022/11/17 03:22:54;;;;;;;6.32;5.13;;;6.10;99.90;;;;;;5074319;28;20032;-52
2022/11/17 03:25:43;;;;;;;5.93;5.05;;;6.10;99.90;;;;;;5089530;28;20426;-52
2022/11/17 03:28:30;;;;;;;5.43;4.85;;;6.10;99.90;;;;;;5075216;28;20033;-55
2022/11/17 03:31:18;;;;;;;5.35;4.75;;;6.10;99.90;;;;;;5071206;28;20024;-57
2022/11/17 03:34:08;;;;;;;6.38;5.70;;;6.10;99.90;;;;;;5088638;28;20035;-54
2022/11/17 03:37:00;;;;;;;7.13;5.78;;;6.10;99.90;;;;;;5087158;28;20012;-55
2022/11/17 03:39:51;;;;;;;6.22;5.47;;;6.10;99.90;;;;;;5092808;28;20063;-55
2022/11/17 03:42:41;;;;;;;6.35;5.53;;;6.10;99.90;;;;;;5081691;28;20024;-55
2022/11/17 03:45:39;;;;;;;6.00;5.20;;;6.10;99.90;;;;;;5103179;28;20491;-52
2022/11/17 03:48:35;;;;;;;7.60;5.50;;;6.10;99.90;;;;;;5090617;28;20560;-55
2022/11/17 03:51:26;;;;;;;6.32;5.55;;;5.90;99.90;;;;;;5088860;28;20370;-54
2022/11/17 03:54:13;;;;;;;5.85;5.00;;;5.90;99.90;;;;;;5069789;28;20037;-56
2022/11/17 03:57:40;;;;;;;7.20;6.50;;;5.80;99.90;;;;;;5072162;28;20078;-55
2022/11/17 04:00:26;;;;;;;6.32;5.40;;;5.90;99.90;;;;;;4987978;28;20027;-56
2022/11/17 04:03:13;;;;;;;6.18;5.40;;;6.00;99.90;;;;;;5061334;28;20033;-56
2022/11/17 04:06:00;;;;;;;5.88;5.28;;;6.00;99.90;;;;;;5074237;28;20039;-55
2022/11/17 04:08:46;;;;;;;6.47;5.63;;;6.00;99.90;;;;;;5088778;28;20557;-56
2022/11/17 04:17:41;;;;;;;6.60;5.85;;;5.90;99.90;;;;;;5094610;28;20532;-56
2022/11/17 04:20:34;;;;;;;6.50;5.40;;;5.90;99.90;;;;;;5093177;28;20461;-57
2022/11/17 04:23:21;;;;;;;6.05;5.45;;;6.00;99.90;;;;;;5073266;28;20132;-54
2022/11/17 04:29:14;;;;;;;5.70;4.85;;;6.10;99.90;;;;;;5092987;28;20035;-54
2022/11/17 04:32:00;;;;;;;7.18;5.47;;;6.00;99.90;;;;;;5090737;28;20519;-51
2022/11/17 04:34:47;;;;;;;6.15;5.43;;;6.00;99.90;;;;;;5093805;28;20032;-53
2022/11/17 04:37:33;;;;;;;6.28;5.68;;;6.00;99.90;;;;;;5071131;28;20040;-51
2022/11/17 04:40:19;;;;;;;11.13;8.25;;;6.00;99.90;;;;;;5073324;28;20450;-52
2022/11/17 04:43:06;;;;;;;6.78;6.07;;;5.90;99.90;;;;;;5092283;28;20036;-52
2022/11/17 04:45:58;;;;;;;6.97;6.10;;;5.90;99.90;;;;;;5103609;28;20496;-52
2022/11/17 04:48:44;;;;;;;7.40;5.82;;;6.00;99.90;;;;;;5091719;28;20077;-54
2022/11/17 04:51:31;;;;;;;5.88;5.28;;;6.00;99.90;;;;;;5081882;28;20032;-53
2022/11/17 04:54:19;;;;;;;6.15;5.55;;;6.00;99.90;;;;;;5073514;28;20424;-51
2022/11/17 04:57:05;;;;;;;6.80;6.10;;;6.00;99.90;;;;;;5087449;28;20647;-57
2022/11/17 04:59:51;;;;;;;6.53;5.93;;;5.90;99.90;;;;;;5091153;28;20024;-53
2022/11/17 05:02:37;;;;;;;7.25;5.97;;;5.90;99.90;;;;;;5072566;28;20063;-55
2022/11/17 05:05:23;;;;;;;6.57;5.75;;;5.90;99.90;;;;;;5060604;28;20124;-56
2022/11/17 05:08:09;;;;;;;7.22;6.20;;;5.90;99.90;;;;;;5091960;28;20031;-54
2022/11/17 05:14:02;;;;;;;7.65;5.95;;;5.80;99.90;;;;;;5071870;28;20448;-51
2022/11/17 05:17:03;;;;;;;7.18;5.88;;;5.70;99.90;;;;;;5073488;28;20085;-55
2022/11/17 05:19:49;;;;;;;8.27;7.00;;;5.80;99.90;;;;;;5056744;28;20090;-54
2022/11/17 05:25:40;;;;;;;6.60;5.85;;;5.70;99.90;;;;;;5076650;28;20040;-54
2022/11/17 05:28:26;;;;;;;7.38;5.68;;;5.70;99.90;;;;;;5076249;28;20024;-50
2022/11/17 05:31:12;;;;;;;8.02;6.07;;;5.70;99.90;;;;;;5080889;28;20036;-55
2022/11/17 05:33:59;;;;;;;7.95;6.18;;;5.80;99.90;;;;;;5072352;28;20059;-51
2022/11/17 05:36:45;;;;;;;7.65;6.80;;;5.70;99.90;;;;;;5078645;28;20055;-57
2022/11/17 05:39:31;;;;;;;8.02;6.47;;;5.60;99.90;;;;;;5087835;28;20067;-56
2022/11/17 05:42:17;;;;;;;8.70;5.95;;;5.60;99.90;;;;;;5091259;28;20043;-53
2022/11/17 05:45:03;;;;;;;8.30;6.43;;;5.60;99.90;;;;;;5071043;28;20028;-52
2022/11/17 05:47:49;;;;;;;9.43;5.90;;;5.50;99.90;;;;;;5056361;28;20104;-55
2022/11/17 05:50:35;;;;;;;8.75;6.60;;;5.50;99.90;;;;;;5064493;28;20020;-58
2022/11/17 05:53:22;;;;;;;7.85;6.15;;;5.50;99.90;;;;;;5091046;28;20031;-52
2022/11/17 05:56:29;;;;;;;7.57;6.43;;;5.50;99.90;;;;;;5084829;28;20024;-57
2022/11/17 05:59:24;;;;;;;7.60;6.53;;;5.40;99.90;;;;;;5096567;28;20020;-59
2022/11/17 06:02:30;;;;;;;7.93;5.93;;;5.50;99.90;;;;;;5069787;28;20040;-55
2022/11/17 06:05:17;;;;;;;7.68;6.15;;;5.40;99.90;;;;;;5083650;28;20033;-55
2022/11/17 06:08:03;;;;;;;7.50;6.03;;;5.50;99.90;;;;;;5109212;28;20030;-53
2022/11/17 06:10:49;;;;;;;7.40;5.97;;;5.50;99.90;;;;;;5094119;28;20044;-58
2022/11/17 06:13:35;;;;;;;8.13;6.20;;;5.40;99.90;;;;;;5091320;28;20032;-54
2022/11/17 06:16:26;;;;;;;7.95;6.45;;;5.40;99.90;;;;;;5071581;28;20024;-53
2022/11/17 06:19:17;;;;;;;9.23;6.45;;;5.40;99.90;;;;;;5091271;28;20400;-54
2022/11/17 06:22:03;;;;;;;7.55;5.93;;;5.40;99.90;;;;;;5069314;28;20400;-52
2022/11/17 06:24:49;;;;;;;9.05;6.38;;;5.30;99.90;;;;;;5074184;28;20081;-54
2022/11/17 06:27:37;;;;;;;7.60;6.32;;;5.30;99.90;;;;;;5091011;28;20031;-55
2022/11/17 06:30:23;;;;;;;6.82;6.13;;;5.30;99.90;;;;;;5074763;28;20033;-53
2022/11/17 06:33:12;;;;;;;8.13;6.40;;;5.30;99.90;;;;;;5069608;28;20033;-54
2022/11/17 06:36:00;;;;;;;9.45;6.32;;;5.40;99.90;;;;;;5071355;28;20559;-53
2022/11/17 06:38:46;;;;;;;8.70;6.65;;;5.30;99.90;;;;;;5075096;28;20495;-54
2022/11/17 06:41:32;;;;;;;9.32;6.22;;;5.30;99.90;;;;;;5075623;28;20032;-57
2022/11/17 06:44:18;;;;;;;10.32;6.72;;;5.30;99.90;;;;;;5096903;28;20028;-54
2022/11/17 06:47:04;;;;;;;11.38;6.93;;;5.30;99.90;;;;;;5088825;28;20028;-56
2022/11/17 06:49:49;;;;;;;9.85;6.80;;;5.30;99.90;;;;;;5091802;28;20023;-55
2022/11/17 06:52:36;;;;;;;8.00;6.80;;;5.30;99.90;;;;;;5084653;28;20036;-56
2022/11/17 06:55:22;;;;;;;9.02;7.15;;;5.30;99.90;;;;;;5081836;28;20099;-53
2022/11/17 06:58:11;;;;;;;9.65;7.28;;;5.20;99.90;;;;;;5095270;28;20024;-53
2022/11/17 07:01:02;;;;;;;10.93;7.38;;;5.20;99.90;;;;;;5082504;28;20417;-54
2022/11/17 07:03:48;;;;;;;9.73;7.10;;;5.30;99.90;;;;;;5086877;28;20020;-54
2022/11/17 07:06:38;;;;;;;10.20;7.22;;;5.30;99.90;;;;;;5094719;28;20028;-57
2022/11/17 07:09:25;;;;;;;11.48;7.47;;;5.40;99.90;;;;;;5105666;28;20054;-54
2022/11/17 07:12:11;;;;;;;9.45;7.00;;;5.40;99.90;;;;;;5095974;28;20040;-53
2022/11/17 07:14:57;;;;;;;8.90;7.15;;;5.40;99.90;;;;;;5064422;28;20032;-57
2022/11/17 07:17:43;;;;;;;8.90;7.93;;;5.50;99.90;;;;;;5071552;28;20053;-55
2022/11/17 07:20:28;;;;;;;9.23;7.30;;;5.40;99.90;;;;;;5086622;28;20093;-54
2022/11/17 07:23:17;;;;;;;11.30;7.10;;;5.50;99.90;;;;;;5088315;28;20020;-54
2022/11/17 07:26:04;;;;;;;9.93;7.43;;;5.50;99.90;;;;;;5089072;28;20032;-52
2022/11/17 07:28:50;;;;;;;9.05;7.30;;;5.50;99.90;;;;;;5073731;28;20047;-54
2022/11/17 07:31:36;;;;;;;11.30;7.28;;;5.50;99.90;;;;;;5063683;28;20031;-56
2022/11/17 07:34:22;;;;;;;9.48;8.00;;;5.50;99.90;;;;;;5074927;28;20032;-56
2022/11/17 07:37:08;;;;;;;9.65;7.68;;;5.50;99.90;;;;;;5089803;28;20427;-58
2022/11/17 07:39:54;;;;;;;9.20;7.30;;;5.60;99.90;;;;;;5088036;28;20036;-55
2022/11/17 07:42:40;;;;;;;9.18;7.57;;;5.60;99.90;;;;;;5094758;28;20020;-56
2022/11/17 07:45:29;;;;;;;10.15;7.25;;;5.60;99.90;;;;;;5089567;28;20031;-52
2022/11/17 07:48:15;;;;;;;9.00;7.65;;;5.60;99.90;;;;;;5074329;28;20111;-55
2022/11/17 07:51:04;;;;;;;10.10;8.32;;;5.70;99.90;;;;;;5087229;28;20111;-57
2022/11/17 07:53:50;;;;;;;10.90;7.93;;;5.70;99.90;;;;;;5073381;28;20113;-54
2022/11/17 07:56:36;;;;;;;11.75;8.10;;;5.70;99.90;;;;;;5082196;28;20434;-53
2022/11/17 07:59:22;;;;;;;8.32;7.47;;;5.70;99.90;;;;;;5108054;28;20032;-56
2022/11/17 08:02:08;;;;;;;11.27;7.90;;;5.60;99.90;;;;;;5108743;28;20044;-53
2022/11/17 08:04:54;;;;;;;12.13;8.30;;;5.60;99.90;;;;;;5090685;28;20028;-53
2022/11/17 08:07:40;;;;;;;10.52;7.65;;;5.60;99.90;;;;;;5104774;28;20028;-55
2022/11/17 08:10:30;;;;;;;9.07;7.43;;;5.60;99.90;;;;;;5101152;28;20024;-54
2022/11/17 08:13:16;;;;;;;9.68;7.63;;;5.60;99.90;;;;;;5093161;28;20020;-55
2022/11/17 08:16:02;;;;;;;9.52;7.65;;;5.60;99.90;;;;;;5079009;28;20027;-55
2022/11/17 08:18:48;;;;;;;10.55;7.80;;;5.60;99.90;;;;;;5058506;28;20025;-56
2022/11/17 08:21:35;;;;;;;12.25;8.60;;;5.60;99.90;;;;;;5079524;28;20027;-53
2022/11/17 08:24:21;;;;;;;14.38;9.73;;;5.50;99.90;;;;;;5092462;28;20070;-57
2022/11/17 08:27:07;;;;;;;13.73;8.63;;;5.50;99.90;;;;;;5092186;28;20217;-54
2022/11/17 08:29:53;;;;;;;12.35;8.57;;;5.60;99.90;;;;;;5100775;28;20043;-54
2022/11/17 08:32:48;;;;;;;11.07;8.30;;;5.70;99.90;;;;;;5111487;28;20043;-56
2022/11/17 08:35:37;;;;;;;10.93;8.13;;;5.70;99.90;;;;;;5080180;28;20030;-54
2022/11/17 08:38:27;;;;;;;9.27;7.75;;;5.70;99.90;;;;;;5081688;28;20020;-52
2022/11/17 08:41:13;;;;;;;10.55;7.72;;;5.70;99.90;;;;;;5083058;28;20377;-52
2022/11/17 08:43:59;;;;;;;9.07;8.10;;;5.70;99.90;;;;;;5084009;28;20028;-51
2022/11/17 08:46:45;;;;;;;13.30;8.15;;;5.70;99.90;;;;;;5080191;28;20054;-48
2022/11/17 08:49:31;;;;;;;11.02;8.20;;;5.70;99.90;;;;;;5058069;28;20046;-52
2022/11/17 08:52:18;;;;;;;10.80;8.65;;;5.70;99.90;;;;;;5076594;28;20039;-54
2022/11/17 08:55:05;;;;;;;8.60;7.57;;;5.70;99.90;;;;;;5069081;28;20040;-56
2022/11/17 08:57:51;;;;;;;11.15;8.20;;;5.70;99.90;;;;;;5081831;28;20055;-51
2022/11/17 09:00:41;;;;;;;11.32;7.70;;;5.80;99.90;;;;;;5082069;28;20820;-50
2022/11/17 09:03:27;;;;;;;10.88;7.78;;;5.80;99.90;;;;;;5080118;28;20020;-55
2022/11/17 09:06:15;;;;;;;10.43;7.80;;;5.80;99.90;;;;;;5079926;28;20037;-57
2022/11/17 09:09:01;;;;;;;8.63;7.40;;;5.70;99.90;;;;;;5082228;28;20019;-53
2022/11/17 09:11:46;;;;;;;9.48;8.05;;;5.80;99.90;;;;;;5078713;28;20028;-58
2022/11/17 09:14:33;;;;;;;9.52;8.25;;;5.80;99.90;;;;;;5078642;28;20517;-51
2022/11/17 09:17:18;;;;;;;10.55;7.57;;;5.80;99.90;;;;;;5082054;28;20084;-55
2022/11/17 09:20:05;;;;;;;9.90;7.93;;;5.80;99.90;;;;;;5081822;28;20060;-51
2022/11/17 09:22:51;;;;;;;10.15;7.80;;;5.80;99.90;;;;;;5081867;28;20108;-55
2022/11/17 09:25:37;;;;;;;10.02;8.50;;;5.80;99.90;;;;;;5081940;28;20020;-54
2022/11/17 09:28:26;;;;;;;10.50;8.25;;;5.80;99.90;;;;;;5091041;28;20032;-55
2022/11/17 09:31:15;;;;;;;10.55;8.35;;;5.80;99.90;;;;;;5067869;28;20100;-56
2022/11/17 09:34:01;;;;;;;11.05;7.82;;;5.90;99.90;;;;;;5081105;28;20036;-56
2022/11/17 09:36:47;;;;;;;10.52;8.02;;;5.90;99.90;;;;;;5079035;28;20508;-61
2022/11/17 09:39:33;;;;;;;11.80;8.73;;;6.00;99.90;;;;;;5057684;28;20023;-61
2022/11/17 09:42:21;;;;;;;9.52;7.55;;;5.90;99.90;;;;;;5081296;28;20028;-59
2022/11/17 09:45:21;;;;;;;10.65;7.78;;;5.90;99.90;;;;;;5079528;28;20552;-61
2022/11/17 09:48:38;;;;;;;12.07;8.70;;;5.90;99.90;;;;;;5080967;28;20112;-60
2022/11/17 09:51:28;;;;;;;12.40;8.77;;;5.90;99.90;;;;;;5061036;28;20037;-62
2022/11/17 09:54:22;;;;;;;11.10;8.77;;;6.00;99.90;;;;;;5057539;28;20035;-60
2022/11/17 09:57:18;;;;;;;8.82;7.78;;;5.90;99.90;;;;;;5071960;28;20085;-61
2022/11/17 10:00:15;;;;;;;12.40;8.88;;;5.90;99.90;;;;;;5080493;28;20507;-63
2022/11/17 10:03:04;;;;;;;9.73;8.02;;;5.90;99.90;;;;;;5084750;28;20073;-62
2022/11/17 10:05:51;;;;;;;12.52;8.70;;;5.90;99.90;;;;;;5068079;28;20145;-63
2022/11/17 10:09:15;;;;;;;10.90;8.27;;;5.90;99.90;;;;;;5091576;28;20028;-64
2022/11/17 10:12:26;;;;;;;14.82;7.93;;;5.90;99.90;;;;;;5074300;28;20024;-64
2022/11/17 10:15:29;;;;;;;11.13;8.30;;;5.90;99.90;;;;;;5075897;28;20120;-62
2022/11/17 10:18:16;;;;;;;9.25;7.28;;;5.90;99.90;;;;;;5067041;28;20028;-61
2022/11/17 10:21:04;;;;;;;11.38;8.45;;;5.90;99.90;;;;;;5055813;28;20025;-62
2022/11/17 10:23:57;;;;;;;9.50;7.65;;;5.90;99.90;;;;;;5059460;28;20024;-62
2022/11/17 10:26:48;;;;;;;10.90;8.50;;;6.10;99.90;;;;;;5088611;28;20031;-61
2022/11/17 10:29:34;;;;;;;9.95;7.88;;;6.00;99.90;;;;;;5089385;28;20032;-62
2022/11/17 10:32:20;;;;;;;11.68;8.52;;;6.00;99.90;;;;;;5075161;28;20036;-62
2022/11/17 10:35:33;;;;;;;8.95;7.53;;;6.00;99.90;;;;;;5089666;28;20028;-62
2022/11/17 10:38:19;;;;;;;11.27;8.50;;;6.10;99.90;;;;;;5076088;28;20028;-62
2022/11/17 10:41:15;;;;;;;9.85;7.85;;;6.10;99.90;;;;;;5086151;28;20020;-63
2022/11/17 10:44:26;;;;;;;9.80;7.50;;;6.10;99.90;;;;;;5087754;28;20028;-63
2022/11/17 10:47:32;;;;;;;12.27;9.00;;;6.10;99.90;;;;;;5045666;28;20081;-62
2022/11/17 10:50:20;;;;;;;11.57;8.20;;;6.10;99.90;;;;;;5069014;28;20035;-64
2022/11/17 10:53:30;;;;;;;11.00;8.23;;;6.00;99.90;;;;;;5076761;28;20124;-63
2022/11/17 10:56:20;;;;;;;11.00;7.65;;;6.10;99.90;;;;;;5079879;28;20391;-64
2022/11/17 10:59:37;;;;;;;14.30;8.43;;;6.10;99.90;;;;;;5062085;28;20031;-64
2022/11/17 11:02:34;;;;;;;12.95;8.23;;;6.10;99.90;;;;;;5075960;28;20028;-64
2022/11/17 11:05:20;;;;;;;10.70;8.75;;;6.10;99.90;;;;;;5091337;28;20024;-63
2022/11/17 11:08:21;;;;;;;10.32;7.78;;;6.00;99.90;;;;;;5076584;28;20081;-63
2022/11/17 11:11:19;;;;;;;10.70;8.18;;;6.10;99.90;;;;;;5072940;28;20087;-63
2022/11/17 11:14:20;;;;;;;10.60;9.48;;;6.10;99.90;;;;;;5078329;28;20182;-61
2022/11/17 11:17:15;;;;;;;10.07;7.90;;;6.10;99.90;;;;;;5090908;28;20365;-60
2022/11/17 11:20:01;;;;;;;10.43;8.00;;;6.10;99.90;;;;;;5074483;28;20031;-56
2022/11/17 11:23:15;;;;;;;9.57;7.75;;;6.10;99.90;;;;;;5086899;28;20021;-58
2022/11/17 11:26:33;;;;;;;11.43;8.00;;;6.10;99.90;;;;;;5073858;28;20024;-64
2022/11/17 11:29:44;;;;;;;10.02;8.45;;;6.10;99.90;;;;;;5061171;28;20439;-63
2022/11/17 11:32:39;;;;;;;10.45;7.95;;;6.10;99.90;;;;;;5090475;28;20081;-63
2022/11/17 11:35:57;;;;;;;12.45;8.75;;;6.10;99.90;;;;;;5076959;28;20027;-62
2022/11/17 11:38:57;;;;;;;12.20;8.40;;;6.10;99.90;;;;;;5051694;28;20046;-61
2022/11/17 11:42:12;;;;;;;10.98;8.05;;;6.10;99.90;;;;;;5071051;28;20028;-61
2022/11/17 11:45:13;;;;;;;10.23;8.52;;;6.00;99.90;;;;;;5064867;28;20475;-58
2022/11/17 11:48:17;;;;;;;9.82;7.72;;;6.10;99.90;;;;;;5072678;28;20020;-61
2022/11/17 11:51:19;;;;;;;11.13;8.82;;;6.20;99.90;;;;;;5083299;28;20028;-61
2022/11/17 11:54:15;;;;;;;9.85;7.78;;;6.20;99.90;;;;;;5068209;28;20127;-59
2022/11/17 11:57:01;;;;;;;9.88;7.88;;;6.30;99.90;;;;;;5064779;28;20021;-60
2022/11/17 11:59:58;;;;;;;10.50;8.07;;;6.20;99.90;;;;;;5084679;28;20117;-58
2022/11/17 12:03:15;;;;;;;12.27;8.25;;;6.20;99.90;;;;;;5078573;28;20032;-61
2022/11/17 12:06:38;;;;;;;10.00;7.95;;;6.20;99.90;;;;;;5082413;28;20093;-56
2022/11/17 12:09:34;;;;;;;10.60;8.40;;;6.20;99.90;;;;;;5085667;28;20104;-55
2022/11/17 12:12:31;;;;;;;10.20;8.27;;;6.30;99.90;;;;;;5068266;28;20095;-58
2022/11/17 12:15:17;;;;;;;9.80;8.20;;;6.30;99.90;;;;;;5059469;28;20174;-59
2022/11/17 12:18:26;;;;;;;10.18;7.53;;;6.40;99.90;;;;;;5083815;28;20157;-61
2022/11/17 12:21:19;;;;;;;8.57;7.53;;;6.40;99.90;;;;;;5076627;28;20035;-60
2022/11/17 12:24:28;;;;;;;9.55;7.90;;;6.50;99.90;;;;;;5080047;28;20440;-58
2022/11/17 12:27:31;;;;;;;8.43;7.28;;;6.40;99.90;;;;;;5079334;28;20050;-59
2022/11/17 12:30:46;;;;;;;10.48;8.18;;;6.50;99.90;;;;;;5080011;28;20028;-56
2022/11/17 12:33:50;;;;;;;10.90;8.60;;;6.60;99.90;;;;;;5004108;28;20119;-56
2022/11/17 12:36:37;;;;;;;9.45;7.95;;;6.60;99.90;;;;;;5072164;28;20032;-59
2022/11/17 12:39:57;;;;;;;11.07;8.48;;;6.60;99.90;;;;;;5067014;28;20024;-56
2022/11/17 12:43:15;;;;;;;9.90;8.15;;;6.70;99.90;;;;;;5082234;28;20033;-58
2022/11/17 12:46:14;;;;;;;8.60;7.57;;;6.60;99.90;;;;;;5069980;28;20392;-54
2022/11/17 12:49:22;;;;;;;8.63;7.63;;;6.50;99.90;;;;;;5080179;28;20495;-59
2022/11/17 12:52:16;;;;;;;9.27;7.57;;;6.60;99.90;;;;;;5074335;28;20060;-57
2022/11/17 12:55:27;;;;;;;10.95;9.25;;;6.50;99.90;;;;;;5074158;28;20063;-56
2022/11/17 12:58:31;;;;;;;13.30;11.05;;;6.50;99.90;;;;;;5050660;28;20482;-58
2022/11/17 13:01:30;;;;;;;11.25;8.82;;;6.50;99.90;;;;;;5078489;28;20052;-58
2022/11/17 13:04:20;;;;;;;12.50;8.48;;;6.60;99.90;;;;;;5080245;28;20035;-56
2022/11/17 13:07:16;;;;;;;9.93;8.40;;;6.50;99.90;;;;;;5077826;28;20471;-57
2022/11/17 13:10:02;;;;;;;13.48;9.25;;;6.60;99.90;;;;;;5081096;28;20590;-59
2022/11/17 13:12:48;;;;;;;10.38;8.68;;;6.70;99.90;;;;;;5064774;28;20102;-57
2022/11/17 13:15:34;;;;;;;11.00;9.30;;;6.70;99.90;;;;;;5075946;28;20028;-58
2022/11/17 13:18:36;;;;;;;9.35;8.35;;;6.60;99.90;;;;;;5072892;28;20034;-58
2022/11/17 13:21:27;;;;;;;10.13;8.07;;;6.70;99.90;;;;;;5065247;28;20023;-55
2022/11/17 13:24:29;;;;;;;11.18;9.27;;;6.70;99.90;;;;;;5079285;28;20032;-57
2022/11/17 13:27:23;;;;;;;12.55;9.45;;;6.70;99.90;;;;;;5078691;28;20563;-59
2022/11/17 13:30:27;;;;;;;9.80;8.80;;;6.70;99.90;;;;;;5072014;28;20108;-58
2022/11/17 13:33:20;;;;;;;10.82;8.63;;;6.70;99.90;;;;;;5061182;28;20116;-58
2022/11/17 13:36:19;;;;;;;10.30;8.27;;;6.60;99.90;;;;;;5076063;28;20020;-57
2022/11/17 13:39:15;;;;;;;10.15;8.30;;;6.60;99.90;;;;;;5078992;28;20036;-57
2022/11/17 13:42:03;;;;;;;12.05;9.02;;;6.70;99.90;;;;;;5075709;28;20032;-54
2022/11/17 13:44:49;;;;;;;9.77;8.48;;;6.70;99.90;;;;;;5062946;28;20051;-57
2022/11/17 13:47:35;;;;;;;11.02;9.35;;;6.70;99.90;;;;;;5060379;28;20564;-55
2022/11/17 13:50:30;;;;;;;10.80;8.95;;;6.70;99.90;;;;;;5074077;28;20027;-57
2022/11/17 13:53:23;;;;;;;11.25;8.68;;;6.70;99.90;;;;;;5075378;28;20064;-58
2022/11/17 13:56:41;;;;;;;12.93;9.30;;;6.80;99.90;;;;;;5082331;28;20555;-57
2022/11/17 13:59:30;;;;;;;11.38;9.15;;;6.70;99.90;;;;;;5074255;28;20033;-60
2022/11/17 14:02:19;;;;;;;11.65;9.93;;;6.70;99.90;;;;;;5062712;28;20103;-59
2022/11/17 14:05:13;;;;;;;14.00;9.48;;;6.80;99.90;;;;;;5072646;28;20036;-59
2022/11/17 14:08:12;;;;;;;13.43;9.25;;;6.70;99.90;;;;;;5073431;28;20431;-60
2022/11/17 14:11:10;;;;;;;13.85;10.60;;;6.70;99.90;;;;;;5062422;28;20435;-61
2022/11/17 14:14:00;;;;;;;13.30;10.00;;;6.70;99.90;;;;;;5060080;28;20016;-64
2022/11/17 14:16:46;;;;;;;12.85;10.13;;;6.70;99.90;;;;;;5058787;28;20029;-63
2022/11/17 14:19:33;;;;;;;14.88;10.60;;;6.70;99.90;;;;;;5061462;28;20396;-64
2022/11/17 14:22:24;;;;;;;12.38;10.35;;;6.70;99.90;;;;;;5074285;28;20097;-64
2022/11/17 14:25:11;;;;;;;11.65;10.45;;;6.70;99.90;;;;;;5064641;28;20053;-62
2022/11/17 14:27:57;;;;;;;14.30;11.10;;;6.60;99.90;;;;;;5075539;28;20039;-61
2022/11/17 14:30:47;;;;;;;16.80;11.10;;;6.70;99.90;;;;;;5075220;28;20420;-58
2022/11/17 14:33:33;;;;;;;19.38;11.27;;;6.70;99.90;;;;;;5056625;28;20102;-61
2022/11/17 14:36:19;;;;;;;11.20;9.68;;;6.70;99.90;;;;;;5057777;28;20031;-58
2022/11/17 14:39:16;;;;;;;12.13;10.05;;;6.70;99.90;;;;;;5071395;28;20035;-60
2022/11/17 14:42:02;;;;;;;11.52;9.63;;;6.80;99.90;;;;;;5069595;28;20046;-57
2022/11/17 14:44:48;;;;;;;13.82;10.50;;;6.70;99.90;;;;;;5071529;28;20555;-60
2022/11/17 14:47:34;;;;;;;12.20;9.50;;;6.70;99.90;;;;;;5051330;28;20036;-59
2022/11/17 14:50:20;;;;;;;13.05;10.10;;;6.70;99.90;;;;;;5068872;28;20028;-61
2022/11/17 14:53:06;;;;;;;13.68;10.07;;;6.70;99.90;;;;;;5069265;28;20093;-59
2022/11/17 14:55:52;;;;;;;13.57;10.00;;;6.70;99.90;;;;;;5072440;28;20100;-56
2022/11/17 14:58:38;;;;;;;13.48;10.27;;;6.70;99.90;;;;;;5070062;28;20431;-56
2022/11/17 15:01:28;;;;;;;15.00;10.15;;;6.70;99.90;;;;;;5056213;28;20022;-56
2022/11/17 15:04:17;;;;;;;11.68;9.80;;;6.70;99.90;;;;;;5056873;28;20044;-57
2022/11/17 15:07:03;;;;;;;13.13;10.30;;;6.70;99.90;;;;;;5053383;28;20039;-58
2022/11/17 15:09:48;;;;;;;11.05;9.90;;;6.70;99.90;;;;;;5070440;28;20377;-55
2022/11/17 15:12:35;;;;;;;12.10;9.75;;;6.70;99.90;;;;;;5069145;28;20032;-57
2022/11/17 15:15:20;;;;;;;12.82;10.30;;;6.60;99.90;;;;;;5068435;28;20025;-58
2022/11/17 15:18:11;;;;;;;11.75;9.82;;;6.70;99.90;;;;;;5070057;28;20058;-54
2022/11/17 15:21:08;;;;;;;11.35;9.98;;;6.60;99.90;;;;;;5067996;28;20021;-52
2022/11/17 15:23:54;;;;;;;11.68;9.43;;;6.60;99.90;;;;;;5070357;28;20055;-57
2022/11/17 15:26:40;;;;;;;13.40;10.43;;;6.60;99.90;;;;;;5069242;28;20086;-54
2022/11/17 15:29:26;;;;;;;13.13;10.80;;;6.60;99.90;;;;;;5068201;28;20027;-54